Time;durP1;ratioP1;P1;durP2;ratioP2;P2;SDS_P1;SDS_P2;PMS_P1;PMS_P2;Temp;Humidity;BMP_temperature;BMP_pressure;BME280_temperature;BME280_humidity;BME280_pressure;Samples;Min_cycle;Max_cycle;Signal;HPM_P1;HPM_P2
2021/10/03 00:01:54;;;;;;;1.00;1.00;;;;;;;14.17;86.95;95571.44;5055288;28;20213;-73
2021/10/03 00:04:22;;;;;;;1.10;1.10;;;;;;;13.98;89.54;95567.84;5058981;28;20624;-73
2021/10/03 00:06:48;;;;;;;560.72;293.08;;;;;;;14.05;87.68;95567.81;5057665;28;20664;-73
2021/10/03 00:09:15;;;;;;;1521.05;765.33;;;;;;;13.88;85.65;95571.19;5057433;28;20205;-73
2021/10/03 00:11:42;;;;;;;80.25;56.22;;;;;;;13.79;87.69;95567.97;5058897;28;20215;-73
2021/10/03 00:14:12;;;;;;;1.40;1.30;;;;;;;13.73;88.76;95574.09;5057829;28;20220;-73
2021/10/03 00:16:38;;;;;;;1.15;1.02;;;;;;;13.78;90.11;95571.63;5057414;28;20690;-73
2021/10/03 00:19:07;;;;;;;0.80;0.80;;;;;;;13.67;89.53;95572.31;5058022;28;20207;-73
2021/10/03 00:21:34;;;;;;;0.80;0.80;;;;;;;13.66;89.23;95561.94;5057750;28;20196;-73
2021/10/03 00:24:00;;;;;;;0.90;0.90;;;;;;;13.48;90.48;95570.56;5057840;28;20251;-73
2021/10/03 00:26:27;;;;;;;0.80;0.80;;;;;;;13.45;87.89;95571.00;5058065;28;20204;-73
2021/10/03 00:28:53;;;;;;;2.22;2.13;;;;;;;13.17;92.86;95585.53;5057759;28;20213;-73
2021/10/03 00:31:20;;;;;;;2.50;2.30;;;;;;;13.35;90.40;95574.31;5057654;28;20755;-73
2021/10/03 00:33:46;;;;;;;2.47;2.28;;;;;;;13.44;89.22;95582.63;5057437;28;20220;-73
2021/10/03 00:36:14;;;;;;;2.87;2.67;;;;;;;13.45;90.66;95586.88;5057293;28;20208;-73
2021/10/03 00:38:41;;;;;;;2.93;2.73;;;;;;;13.56;88.39;95580.91;5057452;28;20294;-73
2021/10/03 00:41:08;;;;;;;1.38;1.30;;;;;;;13.39;88.92;95573.69;5058228;28;20628;-76
2021/10/03 00:43:35;;;;;;;0.40;0.40;;;;;;;13.47;88.46;95574.25;5058221;28;20231;-75
2021/10/03 00:46:01;;;;;;;0.40;0.40;;;;;;;13.56;85.84;95575.63;5057634;28;20208;-76
2021/10/03 00:48:28;;;;;;;0.55;0.55;;;;;;;13.53;86.85;95578.72;5057464;28;20203;-76
2021/10/03 00:50:54;;;;;;;0.50;0.50;;;;;;;13.53;85.62;95567.28;5058317;28;20212;-76
2021/10/03 00:53:22;;;;;;;0.50;0.50;;;;;;;13.68;86.65;95570.47;5056925;28;20220;-75
2021/10/03 00:55:49;;;;;;;0.50;0.50;;;;;;;13.45;86.85;95576.31;5056867;28;20212;-75
2021/10/03 00:58:16;;;;;;;0.60;0.60;;;;;;;13.38;87.31;95563.28;5057561;28;20219;-75
2021/10/03 01:00:43;;;;;;;0.50;0.50;;;;;;;13.44;87.28;95558.78;5054376;28;20215;-76
2021/10/03 01:03:11;;;;;;;0.40;0.40;;;;;;;13.34;88.37;95560.28;5057253;28;20426;-76
2021/10/03 01:05:39;;;;;;;0.50;0.50;;;;;;;12.98;85.36;95567.09;5056684;28;21212;-76
2021/10/03 01:08:06;;;;;;;0.40;0.40;;;;;;;13.17;85.02;95568.88;5056618;28;20208;-75
2021/10/03 01:10:34;;;;;;;0.40;0.40;;;;;;;13.30;85.28;95560.88;5055221;28;20204;-76
2021/10/03 01:13:05;;;;;;;0.40;0.40;;;;;;;13.49;86.44;95558.16;5057393;28;20224;-75
2021/10/03 01:15:33;;;;;;;5.00;3.80;;;;;;;13.44;87.52;95550.84;5056508;28;20913;-75
2021/10/03 01:17:59;;;;;;;5.27;3.70;;;;;;;13.19;88.99;95550.97;5056888;28;20200;-75
2021/10/03 01:20:26;;;;;;;4.23;3.83;;;;;;;13.20;88.72;95549.94;5056281;28;20212;-76
2021/10/03 01:22:54;;;;;;;5.43;4.30;;;;;;;13.27;89.46;95542.78;5056504;28;20224;-75
2021/10/03 01:25:21;;;;;;;5.93;4.60;;;;;;;12.99;90.93;95543.06;5055632;28;20739;-75
2021/10/03 01:27:48;;;;;;;4.00;3.60;;;;;;;13.15;90.29;95539.16;5056546;28;21118;-75
2021/10/03 01:30:19;;;;;;;1999.90;999.90;;;;;;;13.29;89.46;95546.03;5056178;28;20216;-75
2021/10/03 01:32:45;;;;;;;1999.90;999.90;;;;;;;13.12;89.27;95547.53;5057004;28;20224;-75
2021/10/03 01:35:12;;;;;;;1999.90;999.90;;;;;;;13.20;88.99;95539.34;5056037;28;20205;-75
2021/10/03 01:37:39;;;;;;;1999.90;999.90;;;;;;;13.28;89.54;95539.94;5056029;28;20208;-75
2021/10/03 01:40:10;;;;;;;1999.90;999.90;;;;;;;13.44;89.65;95542.09;5057567;28;20204;-75
2021/10/03 01:42:37;;;;;;;1999.90;999.90;;;;;;;13.12;88.66;95543.06;5059938;28;20723;-75
2021/10/03 01:45:06;;;;;;;1999.90;999.90;;;;;;;13.04;90.24;95534.53;5060308;28;20224;-75
2021/10/03 01:47:32;;;;;;;1999.90;999.90;;;;;;;12.97;88.98;95539.84;5058609;28;20577;-76
2021/10/03 01:49:59;;;;;;;1999.90;999.90;;;;;;;12.93;86.89;95543.09;5059227;28;20205;-76
2021/10/03 01:52:26;;;;;;;264.70;248.50;;;;;;;12.61;89.67;95549.22;5059832;28;20200;-76
2021/10/03 01:54:52;;;;;;;408.47;379.97;;;;;;;12.59;88.97;95538.06;5059944;28;20211;-76
2021/10/03 01:57:20;;;;;;;355.47;331.27;;;;;;;12.69;89.34;95533.19;5057899;28;20200;-76
2021/10/03 01:59:47;;;;;;;389.13;360.60;;;;;;;12.60;89.55;95525.66;5059348;28;20210;-76
2021/10/03 02:02:13;;;;;;;1442.37;769.00;;;;;;;12.78;88.96;95521.38;5055809;28;20204;-75
2021/10/03 02:04:40;;;;;;;309.40;288.50;;;;;;;12.81;90.08;95516.44;5059542;28;20228;-75
2021/10/03 02:07:06;;;;;;;1999.90;999.90;;;;;;;12.74;91.72;95522.81;5058579;28;20201;-76
2021/10/03 02:09:33;;;;;;;1999.90;999.90;;;;;;;12.93;89.92;95519.31;5059476;28;20215;-76
2021/10/03 02:12:01;;;;;;;1999.90;999.90;;;;;;;13.07;87.59;95516.41;5058950;28;20211;-76
2021/10/03 02:14:31;;;;;;;1999.90;999.90;;;;;;;13.14;89.39;95513.75;5058968;28;20902;-75
2021/10/03 02:16:59;;;;;;;1999.90;999.90;;;;;;;13.05;87.74;95513.16;5058612;28;20711;-76
2021/10/03 02:19:27;;;;;;;1999.90;999.90;;;;;;;13.11;87.14;95508.84;5058748;28;20196;-76
2021/10/03 02:21:55;;;;;;;1999.90;999.90;;;;;;;12.96;88.71;95508.31;5058303;28;20204;-76
2021/10/03 02:24:22;;;;;;;1999.90;999.90;;;;;;;12.95;87.66;95509.34;5058484;28;20243;-75
2021/10/03 02:26:49;;;;;;;1999.90;999.90;;;;;;;12.77;88.33;95495.94;5056154;28;20200;-75
2021/10/03 02:29:15;;;;;;;136.27;127.60;;;;;;;12.73;87.75;95504.47;5058688;28;20200;-75
2021/10/03 02:31:43;;;;;;;118.67;110.30;;;;;;;12.76;89.67;95504.88;5058452;28;20208;-75
2021/10/03 02:34:10;;;;;;;36.37;33.43;;;;;;;12.79;89.54;95500.00;5059100;28;21390;-75
2021/10/03 02:36:37;;;;;;;1999.90;999.90;;;;;;;12.76;90.32;95498.81;5057776;28;20254;-75
2021/10/03 02:39:04;;;;;;;1999.90;999.90;;;;;;;12.94;88.03;95502.41;5058244;28;20219;-75
2021/10/03 02:41:31;;;;;;;1999.90;999.90;;;;;;;12.69;90.63;95504.09;5058558;28;21150;-75
2021/10/03 02:44:00;;;;;;;1999.90;999.90;;;;;;;12.90;89.89;95506.50;5058249;28;20777;-75
2021/10/03 02:46:28;;;;;;;1999.90;999.90;;;;;;;12.73;89.27;95504.47;5057555;28;20206;-75
2021/10/03 02:48:56;;;;;;;1999.90;999.90;;;;;;;13.00;87.35;95498.94;5058678;28;20208;-75
2021/10/03 02:51:25;;;;;;;1999.90;999.90;;;;;;;12.91;86.66;95497.56;5057997;28;20231;-75
2021/10/03 02:53:52;;;;;;;1999.90;999.90;;;;;;;12.94;86.53;95491.84;5058227;28;20700;-75
2021/10/03 02:56:21;;;;;;;1999.90;999.90;;;;;;;13.01;87.30;95485.50;5057750;28;20205;-75
2021/10/03 02:58:48;;;;;;;1999.90;999.90;;;;;;;12.98;87.80;95490.41;5058039;28;20582;-75
2021/10/03 03:01:14;;;;;;;1999.90;999.90;;;;;;;12.77;88.35;95490.66;5054914;28;20207;-75
2021/10/03 03:03:41;;;;;;;1999.90;999.90;;;;;;;12.52;88.69;95488.88;5058028;28;20226;-75
2021/10/03 03:06:10;;;;;;;1999.90;999.90;;;;;;;12.77;87.92;95480.88;5057424;28;20224;-75
2021/10/03 03:08:36;;;;;;;1999.90;999.90;;;;;;;12.69;87.50;95493.53;5058505;28;20201;-75
2021/10/03 03:11:03;;;;;;;1999.90;999.90;;;;;;;13.00;87.01;95489.16;5058327;28;20208;-75
2021/10/03 03:13:30;;;;;;;1999.90;999.90;;;;;;;13.07;86.71;95479.41;5057734;28;20770;-75
2021/10/03 03:15:58;;;;;;;1999.90;999.90;;;;;;;13.00;88.13;95480.44;5057064;28;20207;-75
2021/10/03 03:18:24;;;;;;;1999.90;999.90;;;;;;;12.95;87.90;95482.91;5057260;28;20208;-75
2021/10/03 03:20:52;;;;;;;1999.90;999.90;;;;;;;12.98;87.38;95477.19;5058047;28;20205;-75
2021/10/03 03:23:20;;;;;;;1999.90;999.90;;;;;;;12.82;88.01;95472.34;5057795;28;20255;-75
2021/10/03 03:25:46;;;;;;;1999.90;999.90;;;;;;;12.71;88.46;95466.88;5056463;28;20779;-75
2021/10/03 03:28:13;;;;;;;1999.90;999.90;;;;;;;12.73;88.33;95463.03;5057650;28;20204;-75
2021/10/03 03:30:39;;;;;;;1999.90;999.90;;;;;;;12.75;89.09;95465.44;5057847;28;20211;-75
2021/10/03 03:33:07;;;;;;;281.83;264.17;;;;;;;12.70;90.19;95471.34;5056533;28;20224;-75
2021/10/03 03:35:33;;;;;;;253.70;238.30;;;;;;;12.68;90.03;95469.94;5056534;28;20197;-75
2021/10/03 03:38:02;;;;;;;199.40;186.20;;;;;;;12.71;89.86;95472.19;5058045;28;20204;-75
2021/10/03 03:40:29;;;;;;;200.17;187.30;;;;;;;12.89;88.79;95470.50;5056732;28;20192;-75
2021/10/03 03:42:56;;;;;;;154.77;144.30;;;;;;;12.65;88.94;95471.16;5056716;28;20224;-75
2021/10/03 03:45:22;;;;;;;1999.90;999.90;;;;;;;12.77;88.77;95472.16;5057209;28;20228;-75
2021/10/03 03:47:49;;;;;;;1999.90;999.90;;;;;;;12.80;88.17;95469.91;5056988;28;20205;-75
2021/10/03 03:50:16;;;;;;;1999.90;999.90;;;;;;;12.86;87.64;95463.78;5056956;28;20208;-75
2021/10/03 03:52:44;;;;;;;1999.90;999.90;;;;;;;12.78;87.91;95468.50;5057247;28;20231;-75
2021/10/03 03:55:11;;;;;;;1999.90;999.90;;;;;;;12.69;88.50;95467.09;5056647;28;20254;-75
2021/10/03 03:57:39;;;;;;;1999.90;999.90;;;;;;;12.72;87.96;95465.88;5056108;28;20207;-75
2021/10/03 04:00:08;;;;;;;1999.90;999.90;;;;;;;12.75;87.65;95468.09;5056164;28;20212;-75
2021/10/03 04:02:35;;;;;;;1999.90;999.90;;;;;;;12.48;87.09;95467.34;5054213;28;20216;-75
2021/10/03 04:05:01;;;;;;;1999.90;999.90;;;;;;;12.27;88.47;95467.59;5056591;28;20224;-75
2021/10/03 04:07:28;;;;;;;49.07;45.77;;;;;;;12.16;88.72;95467.41;5056353;28;20200;-75
2021/10/03 04:09:54;;;;;;;65.40;61.13;;;;;;;12.38;89.22;95466.94;5056759;28;20212;-75
2021/10/03 04:12:21;;;;;;;62.87;58.77;;;;;;;12.56;88.15;95461.81;5056429;28;20898;-75
2021/10/03 04:14:49;;;;;;;57.33;53.47;;;;;;;12.69;87.55;95460.97;5056450;28;20204;-75
2021/10/03 04:17:15;;;;;;;60.33;56.20;;;;;;;11.89;91.13;95467.59;5056062;28;20204;-75
2021/10/03 04:19:42;;;;;;;65.27;60.80;;;;;;;11.89;90.35;95457.88;5056475;28;20200;-75
2021/10/03 04:22:08;;;;;;;54.20;50.80;;;;;;;12.22;88.78;95454.19;5056706;28;20562;-75
2021/10/03 04:24:35;;;;;;;62.10;58.00;;;;;;;12.12;88.55;95454.81;5056594;28;20232;-75
2021/10/03 04:27:01;;;;;;;56.17;52.53;;;;;;;12.21;89.25;95467.59;5056042;28;20208;-73
2021/10/03 04:29:28;;;;;;;6.40;5.90;;;;;;;12.28;89.91;95455.19;5055866;28;21170;-73
2021/10/03 04:31:56;;;;;;;0.40;0.40;;;;;;;12.35;88.34;95456.00;5056960;28;20220;-73
2021/10/03 04:34:22;;;;;;;12.93;11.80;;;;;;;11.98;88.27;95461.94;5055614;28;20228;-72
2021/10/03 04:36:49;;;;;;;13.77;12.53;;;;;;;11.70;90.72;95460.53;5055457;28;20212;-72
2021/10/03 04:39:15;;;;;;;11.80;6.63;;;;;;;11.91;90.92;95452.41;5056516;28;20204;-72
2021/10/03 04:41:42;;;;;;;14.33;9.20;;;;;;;12.03;90.58;95456.03;5056700;28;20543;-73
2021/10/03 04:44:08;;;;;;;13.10;10.40;;;;;;;12.11;90.48;95458.50;5055555;28;20227;-73
2021/10/03 04:46:34;;;;;;;13.80;10.13;;;;;;;12.24;90.34;95460.09;5055119;28;20628;-73
2021/10/03 04:49:02;;;;;;;15.27;9.37;;;;;;;12.39;90.71;95452.72;5057156;28;20216;-73
2021/10/03 04:51:29;;;;;;;13.30;9.10;;;;;;;12.16;91.17;95448.13;5055924;28;20203;-73
2021/10/03 04:53:55;;;;;;;14.30;9.03;;;;;;;12.25;91.01;95451.13;5056268;28;20224;-73
2021/10/03 04:56:22;;;;;;;12.30;7.60;;;;;;;12.33;91.11;95450.94;5053838;28;20207;-73
2021/10/03 04:58:48;;;;;;;12.10;7.57;;;;;;;12.17;92.20;95448.72;5056813;28;20204;-73
2021/10/03 05:01:15;;;;;;;13.47;7.97;;;;;;;12.35;91.83;95446.25;5053007;28;20200;-73
2021/10/03 05:03:41;;;;;;;13.50;7.70;;;;;;;12.35;91.82;95456.81;5056087;28;20873;-73
2021/10/03 05:06:10;;;;;;;13.27;8.40;;;;;;;12.22;92.86;95459.47;5055385;28;20410;-73
2021/10/03 05:08:37;;;;;;;12.47;7.83;;;;;;;12.35;91.28;95448.88;5056505;28;20245;-73
2021/10/03 05:11:04;;;;;;;14.00;7.97;;;;;;;12.49;90.87;95450.47;5057040;28;20203;-72
2021/10/03 05:13:30;;;;;;;14.20;8.00;;;;;;;12.52;90.38;95459.81;5057606;28;20227;-72
2021/10/03 05:15:57;;;;;;;11.47;7.50;;;;;;;12.42;90.72;95459.44;5061197;28;20223;-72
2021/10/03 05:18:24;;;;;;;11.80;7.63;;;;;;;12.57;89.73;95446.81;5061468;28;20676;-72
2021/10/03 05:20:50;;;;;;;11.67;7.47;;;;;;;12.38;89.74;95451.09;5061612;28;20204;-72
2021/10/03 05:23:19;;;;;;;10.57;7.20;;;;;;;12.78;88.54;95452.63;5061321;28;20572;-72
2021/10/03 05:25:45;;;;;;;15.67;8.20;;;;;;;12.64;89.19;95453.69;5060392;28;20235;-71
2021/10/03 05:28:13;;;;;;;12.53;8.17;;;;;;;12.68;90.60;95459.34;5061201;28;20205;-72
2021/10/03 05:30:40;;;;;;;14.23;7.70;;;;;;;12.51;89.98;95459.03;5061791;28;20204;-72
2021/10/03 05:33:06;;;;;;;12.47;8.17;;;;;;;12.53;90.12;95451.69;5060513;28;20720;-72
2021/10/03 05:35:33;;;;;;;206.67;130.77;;;;;;;12.44;90.67;95447.63;5060004;28;20211;-72
2021/10/03 05:37:59;;;;;;;0.60;0.60;;;;;;;12.57;89.82;95446.81;5061198;28;20212;-72
2021/10/03 05:40:27;;;;;;;0.47;0.47;;;;;;;12.75;90.07;95445.09;5060301;28;20201;-72
2021/10/03 05:42:53;;;;;;;0.40;0.40;;;;;;;12.75;89.18;95444.31;5061052;28;20235;-72
2021/10/03 05:45:20;;;;;;;0.60;0.60;;;;;;;12.69;89.98;95439.84;5061238;28;20221;-72
2021/10/03 05:47:46;;;;;;;0.43;0.43;;;;;;;12.73;89.87;95438.41;5059444;28;20699;-72
2021/10/03 05:50:14;;;;;;;0.40;0.40;;;;;;;12.81;89.54;95434.50;5060749;28;20204;-72
2021/10/03 05:52:41;;;;;;;0.40;0.40;;;;;;;12.68;91.29;95438.22;5061145;28;20228;-72
2021/10/03 05:55:08;;;;;;;0.50;0.50;;;;;;;12.84;90.70;95436.75;5060559;28;20204;-72
2021/10/03 05:57:36;;;;;;;0.50;0.50;;;;;;;12.97;91.37;95441.16;5060565;28;20208;-72
2021/10/03 06:00:04;;;;;;;0.40;0.40;;;;;;;13.10;91.02;95439.28;5061166;28;20216;-72
2021/10/03 06:02:31;;;;;;;0.30;0.30;;;;;;;13.03;91.02;95435.84;5058266;28;20221;-72
2021/10/03 06:04:58;;;;;;;0.40;0.40;;;;;;;13.12;90.71;95439.06;5060971;28;20207;-72
2021/10/03 06:07:24;;;;;;;0.40;0.40;;;;;;;13.24;90.21;95432.06;5059396;28;20202;-72
2021/10/03 06:09:51;;;;;;;0.40;0.40;;;;;;;13.15;90.20;95430.69;5061214;28;20580;-72
2021/10/03 06:12:18;;;;;;;0.30;0.30;;;;;;;13.43;90.60;95434.63;5060572;28;20205;-72
2021/10/03 06:14:46;;;;;;;0.60;0.60;;;;;;;13.51;91.02;95437.81;5060821;28;20219;-72
2021/10/03 06:17:12;;;;;;;0.40;0.40;;;;;;;13.53;90.23;95435.78;5060078;28;20204;-72
2021/10/03 06:19:39;;;;;;;0.50;0.50;;;;;;;13.66;89.97;95433.03;5061506;28;20204;-72
2021/10/03 06:22:05;;;;;;;0.33;0.33;;;;;;;13.76;91.11;95436.00;5060159;28;20207;-72
2021/10/03 06:24:32;;;;;;;0.53;0.53;;;;;;;13.76;92.66;95443.97;5060914;28;20220;-72
2021/10/03 06:26:58;;;;;;;393.20;361.43;;;;;;;13.77;93.14;95442.94;5058505;28;20771;-72
2021/10/03 06:29:25;;;;;;;0.50;0.50;;;;;;;14.02;92.25;95441.88;5060232;28;21256;-72
2021/10/03 06:31:53;;;;;;;0.30;0.30;;;;;;;14.22;92.79;95452.38;5060268;28;20216;-72
2021/10/03 06:34:19;;;;;;;0.43;0.43;;;;;;;14.00;93.49;95443.97;5059749;28;20585;-72
2021/10/03 06:36:45;;;;;;;13.90;9.97;;;;;;;14.22;92.50;95455.00;5059520;28;20208;-72
2021/10/03 06:39:12;;;;;;;865.50;352.90;;;;;;;14.34;92.00;95453.25;5059434;28;20211;-72
2021/10/03 06:41:38;;;;;;;460.33;214.07;;;;;;;14.24;93.07;95455.59;5060903;28;20211;-72
2021/10/03 06:44:06;;;;;;;593.67;119.70;;;;;;;14.31;93.06;95467.75;5059590;28;20555;-72
2021/10/03 06:46:33;;;;;;;1999.90;999.90;;;;;;;14.36;92.81;95459.97;5059455;28;20614;-72
2021/10/03 06:49:00;;;;;;;80.53;75.55;;;;;;;14.72;91.62;95454.69;5059104;28;20295;-72
2021/10/03 06:51:27;;;;;;;1999.90;999.90;;;;;;;14.76;91.36;95445.25;5059538;28;20645;-72
2021/10/03 06:53:53;;;;;;;1999.90;999.90;;;;;;;14.55;91.55;95452.84;5058817;28;20711;-72
2021/10/03 06:56:20;;;;;;;1999.90;999.90;;;;;;;14.71;91.31;95434.50;5057426;28;20197;-72
2021/10/03 06:58:46;;;;;;;280.10;93.05;;;;;;;14.99;90.53;95430.28;5059346;28;20211;-72
2021/10/03 07:01:13;;;;;;;1228.35;511.70;;;;;;;15.14;90.25;95419.28;5057784;28;20211;-72
2021/10/03 07:03:39;;;;;;;18.30;8.80;;;;;;;15.33;90.48;95427.81;5059825;28;20232;-72
2021/10/03 07:06:07;;;;;;;38.28;35.03;;;;;;;15.66;90.49;95427.34;5058909;28;20227;-73
2021/10/03 07:08:34;;;;;;;1999.90;999.90;;;;;;;15.53;91.29;95427.53;5060725;28;20209;-73
2021/10/03 07:11:01;;;;;;;61.20;57.08;;;;;;;15.41;91.96;95421.38;5060315;28;20207;-72
2021/10/03 07:13:27;;;;;;;55.67;51.17;;;;;;;15.58;91.74;95419.69;5059657;28;20228;-73
2021/10/03 07:15:54;;;;;;;14.50;9.52;;;;;;;15.80;91.08;95426.91;5059716;28;20577;-73
2021/10/03 07:18:21;;;;;;;20.33;12.75;;;;;;;15.84;92.99;95432.59;5061106;28;20207;-73
2021/10/03 07:20:48;;;;;;;116.55;27.33;;;;;;;15.88;93.50;95442.53;5060824;28;20208;-72
2021/10/03 07:23:16;;;;;;;221.35;104.18;;;;;;;16.13;93.52;95446.59;5061253;28;20224;-75
2021/10/03 07:25:42;;;;;;;1530.40;760.60;;;;;;;16.20;93.22;95446.50;5060069;28;20234;-75
2021/10/03 07:28:09;;;;;;;260.70;41.72;;;;;;;16.43;92.22;95447.34;5060930;28;20200;-75
2021/10/03 07:30:36;;;;;;;11.73;7.70;;;;;;;16.36;91.98;95446.66;5061693;28;20200;-75
2021/10/03 07:33:02;;;;;;;16.77;8.00;;;;;;;16.51;90.93;95447.00;5061804;28;20573;-75
2021/10/03 07:35:29;;;;;;;13.00;8.02;;;;;;;16.78;90.29;95448.13;5059823;28;20294;-75
2021/10/03 07:37:56;;;;;;;15.70;7.65;;;;;;;17.01;89.04;95450.75;5060417;28;20208;-73
2021/10/03 07:40:23;;;;;;;10.50;6.32;;;;;;;17.12;88.34;95442.75;5061924;28;20208;-73
2021/10/03 07:42:50;;;;;;;10.27;6.68;;;;;;;16.89;88.83;95452.63;5061548;28;20231;-73
2021/10/03 07:45:16;;;;;;;10.25;6.10;;;;;;;17.15;87.36;95448.38;5060842;28;20207;-72
2021/10/03 07:47:43;;;;;;;10.20;5.95;;;;;;;17.45;86.15;95454.34;5060856;28;20628;-72
2021/10/03 07:50:10;;;;;;;10.52;6.13;;;;;;;17.67;85.67;95451.81;5060317;28;21197;-73
2021/10/03 07:52:36;;;;;;;12.43;6.05;;;;;;;17.76;81.63;95457.31;5060596;28;20279;-73
2021/10/03 07:55:03;;;;;;;9.13;5.32;;;;;;;18.01;82.39;95462.28;5059919;28;20841;-72
2021/10/03 07:57:31;;;;;;;7.82;5.55;;;;;;;18.37;81.01;95460.00;5059141;28;20193;-73
2021/10/03 07:59:58;;;;;;;9.95;5.40;;;;;;;18.54;79.80;95455.44;5061102;28;20206;-73
2021/10/03 08:02:24;;;;;;;8.82;5.55;;;;;;;18.39;80.52;95449.88;5057720;28;20204;-73
2021/10/03 08:04:51;;;;;;;8.30;5.20;;;;;;;18.75;81.00;95442.16;5061296;28;20208;-72
2021/10/03 08:07:17;;;;;;;8.00;5.57;;;;;;;18.97;79.66;95441.13;5060585;28;20230;-73
2021/10/03 08:09:44;;;;;;;724.67;190.68;;;;;;;19.15;78.54;95445.41;5061953;28;20204;-73
2021/10/03 08:12:11;;;;;;;7.70;5.47;;;;;;;19.20;76.98;95448.13;5062220;28;20691;-73
2021/10/03 08:14:39;;;;;;;7.18;5.10;;;;;;;19.28;76.31;95439.66;5061920;28;20212;-73
2021/10/03 08:17:06;;;;;;;6.68;5.95;;;;;;;19.15;78.46;95445.41;5060877;28;20209;-73
2021/10/03 08:19:32;;;;;;;7.95;6.15;;;;;;;19.07;77.41;95443.16;5061801;28;20197;-73
2021/10/03 08:21:59;;;;;;;6.13;5.53;;;;;;;19.30;77.90;95441.03;5062249;28;20212;-75
2021/10/03 08:24:25;;;;;;;6.95;6.28;;;;;;;19.50;75.89;95438.59;5060856;28;20216;-73
2021/10/03 08:26:52;;;;;;;6.80;5.93;;;;;;;19.27;77.37;95446.06;5060620;28;20398;-73
2021/10/03 08:29:21;;;;;;;6.43;5.82;;;;;;;19.28;77.83;95437.78;5060956;28;20207;-73
2021/10/03 08:31:49;;;;;;;8.35;6.35;;;;;;;19.72;76.95;95439.38;5060729;28;20205;-73
2021/10/03 08:34:16;;;;;;;6.90;6.30;;;;;;;19.64;76.99;95431.81;5062643;28;20323;-73
2021/10/03 08:36:43;;;;;;;7.00;6.40;;;;;;;19.38;76.86;95437.91;5060059;28;20215;-73
2021/10/03 08:39:09;;;;;;;7.97;7.18;;;;;;;19.45;77.60;95437.72;5061490;28;20207;-73
2021/10/03 08:41:38;;;;;;;7.38;6.68;;;;;;;19.89;75.76;95443.53;5061625;28;20203;-73
2021/10/03 08:44:05;;;;;;;8.18;7.50;;;;;;;19.83;76.55;95449.91;5061752;28;20224;-73
2021/10/03 08:46:32;;;;;;;110.75;43.10;;;;;;;19.86;75.43;95444.06;5060619;28;20462;-73
2021/10/03 08:49:01;;;;;;;6.70;4.88;;;;;;;20.31;74.12;95442.63;5061318;28;20227;-73
2021/10/03 08:51:28;;;;;;;8.93;5.85;;;;;;;20.26;74.69;95445.28;5061490;28;20307;-73
2021/10/03 08:53:54;;;;;;;9.70;8.93;;;;;;;20.21;74.59;95442.56;5061115;28;20764;-73
2021/10/03 08:56:23;;;;;;;6.75;4.38;;;;;;;20.23;74.08;95443.09;5061045;28;20204;-73
2021/10/03 08:58:51;;;;;;;6.22;4.55;;;;;;;20.49;72.02;95444.09;5061935;28;20205;-73
2021/10/03 09:01:18;;;;;;;6.45;5.13;;;;;;;20.49;70.52;95438.75;5058763;28;20208;-73
2021/10/03 09:03:45;;;;;;;6.45;4.68;;;;;;;20.44;70.27;95441.38;5061036;28;20239;-73
2021/10/03 09:06:13;;;;;;;5.95;4.72;;;;;;;20.37;71.70;95440.81;5061320;28;20259;-73
2021/10/03 09:08:42;;;;;;;6.28;4.97;;;;;;;20.40;72.64;95438.44;5061249;28;20838;-73
2021/10/03 09:11:10;;;;;;;7.35;4.68;;;;;;;20.52;71.29;95432.84;5061804;28;20204;-73
2021/10/03 09:13:46;;;;;;;6.07;4.47;;;;;;;20.47;71.75;95430.19;5061742;28;20231;-73
2021/10/03 09:16:14;;;;;;;5.82;4.10;;;;;;;20.81;71.78;95426.94;5060800;28;20200;-73
2021/10/03 09:18:44;;;;;;;8.80;4.40;;;;;;;20.74;72.17;95422.88;5062022;28;20223;-73
2021/10/03 09:21:14;;;;;;;10.63;4.10;;;;;;;20.95;70.35;95426.22;5062352;28;20672;-73
2021/10/03 09:23:40;;;;;;;7.65;4.53;;;;;;;20.80;73.10;95427.19;5062039;28;20220;-73
2021/10/03 09:26:12;;;;;;;6.80;4.40;;;;;;;21.27;70.48;95426.91;5060801;28;20209;-73
2021/10/03 09:28:39;;;;;;;6.47;4.28;;;;;;;20.97;72.32;95421.41;5062608;28;20204;-73
2021/10/03 09:31:08;;;;;;;13.82;8.93;;;;;;;21.03;72.69;95433.75;5061460;28;20216;-73
2021/10/03 09:33:40;;;;;;;6.90;4.00;;;;;;;21.35;72.13;95426.41;5063114;28;20228;-73
2021/10/03 09:36:06;;;;;;;6.35;4.40;;;;;;;21.32;72.53;95426.09;5061447;28;20209;-73
2021/10/03 09:38:46;;;;;;;8.15;4.38;;;;;;;21.69;71.39;95427.59;5061183;28;20204;-72
2021/10/03 09:41:13;;;;;;;6.00;4.32;;;;;;;21.08;73.59;95431.09;5061801;28;20204;-73
2021/10/03 09:43:42;;;;;;;6.00;4.30;;;;;;;21.32;72.61;95431.47;5061001;28;20327;-73
2021/10/03 09:46:10;;;;;;;6.32;4.50;;;;;;;21.28;71.00;95430.38;5059876;28;20687;-73
2021/10/03 09:48:48;;;;;;;8.13;4.40;;;;;;;21.71;70.79;95425.47;5061614;28;20208;-73
2021/10/03 09:51:16;;;;;;;5.47;3.72;;;;;;;21.50;71.86;95415.75;5061723;28;20204;-73
2021/10/03 09:53:44;;;;;;;7.03;3.97;;;;;;;21.50;69.80;95413.06;5061999;28;20247;-73
2021/10/03 09:56:12;;;;;;;8.57;4.05;;;;;;;21.52;69.63;95416.28;5061005;28;20235;-73
2021/10/03 09:58:39;;;;;;;8.02;4.57;;;;;;;21.54;68.08;95414.16;5062407;28;20239;-73
2021/10/03 10:01:06;;;;;;;7.85;3.80;;;;;;;21.79;69.07;95407.00;5060947;28;20205;-73
2021/10/03 10:03:36;;;;;;;6.53;4.20;;;;;;;21.85;69.17;95405.91;5064481;28;20223;-73
2021/10/03 10:06:03;;;;;;;7.32;3.97;;;;;;;21.51;69.99;95406.63;5063937;28;20201;-73
2021/10/03 10:08:30;;;;;;;6.13;4.00;;;;;;;21.62;69.76;95410.97;5065739;28;20212;-73
2021/10/03 10:11:04;;;;;;;7.43;3.75;;;;;;;21.88;70.20;95409.94;5065092;28;20590;-73
2021/10/03 10:13:33;;;;;;;6.28;3.88;;;;;;;22.12;69.78;95407.28;5065220;28;20223;-73
2021/10/03 10:16:28;;;;;;;112.88;70.03;;;;;;;22.31;68.78;95405.72;5064891;28;20204;-73
2021/10/03 10:19:28;;;;;;;3.47;2.53;;;;;;;22.46;67.56;95412.94;5065499;28;20210;-73
2021/10/03 10:22:36;;;;;;;2.30;1.92;;;;;;;23.16;65.77;95408.28;5065250;28;20239;-73
2021/10/03 10:25:06;;;;;;;2.50;1.90;;;;;;;23.23;65.92;95403.38;5065071;28;20204;-73
2021/10/03 10:28:18;;;;;;;2.28;1.85;;;;;;;23.89;61.83;95405.50;5064855;28;20225;-73
2021/10/03 10:31:10;;;;;;;1.60;1.50;;;;;;;23.72;62.00;95408.56;5029115;28;20687;-73
2021/10/03 10:34:07;;;;;;;2.03;1.42;;;;;;;24.21;62.24;95395.84;5065240;28;20228;-73
2021/10/03 10:36:38;;;;;;;1.40;1.30;;;;;;;23.88;64.00;95390.44;5029110;28;20216;-73
2021/10/03 10:39:25;;;;;;;1.48;1.38;;;;;;;23.82;63.44;95392.34;5064662;28;20212;-73
2021/10/03 10:41:53;;;;;;;1.40;1.30;;;;;;;23.60;65.16;95383.84;5064345;28;20680;-73
2021/10/03 10:44:40;;;;;;;1.45;1.00;;;;;;;24.03;64.32;95393.81;5064711;28;20514;-73
2021/10/03 10:47:17;;;;;;;1.10;1.10;;;;;;;23.91;63.83;95388.00;5063370;28;20224;-73
2021/10/03 10:49:47;;;;;;;1.27;1.17;;;;;;;23.76;62.72;95390.78;5062871;28;20294;-72
2021/10/03 10:52:35;;;;;;;0.98;0.98;;;;;;;23.98;61.70;95385.78;5058594;28;20207;-72
2021/10/03 10:55:24;;;;;;;0.82;0.80;;;;;;;24.18;62.78;95383.75;5049153;28;20204;-72
2021/10/03 10:58:14;;;;;;;0.80;0.80;;;;;;;24.15;63.41;95391.59;5057852;28;20201;-72
2021/10/03 11:01:13;;;;;;;5.45;2.25;;;;;;;24.04;62.76;95398.13;5056477;28;20241;-73
2021/10/03 11:04:06;;;;;;;2.22;1.70;;;;;;;23.92;63.04;95387.72;5059074;28;20312;-73
2021/10/03 11:07:00;;;;;;;3.70;1.90;;;;;;;24.00;63.62;95389.00;5056926;28;20196;-73
2021/10/03 11:09:54;;;;;;;2.53;1.52;;;;;;;23.87;66.29;95378.88;5057137;28;20695;-72
2021/10/03 11:12:34;;;;;;;2.35;1.90;;;;;;;23.96;63.23;95379.88;5058212;28;20232;-72
2021/10/03 11:15:21;;;;;;;1.50;1.40;;;;;;;24.06;63.05;95377.13;5058259;28;20215;-72
2021/10/03 11:17:47;;;;;;;4.20;1.50;;;;;;;23.70;63.97;95381.16;5056952;28;21143;-72
2021/10/03 11:20:15;;;;;;;1.67;1.13;;;;;;;24.13;65.21;95370.34;5057630;28;20585;-72
2021/10/03 11:22:44;;;;;;;1.55;1.30;;;;;;;23.60;62.70;95373.09;5058089;28;20229;-72
2021/10/03 11:25:17;;;;;;;1.25;1.15;;;;;;;23.92;61.85;95376.94;5057476;28;20207;-72
2021/10/03 11:27:51;;;;;;;728.65;306.75;;;;;;;23.75;62.73;95375.75;5056420;28;20313;-72